Search for airport 
image banner adimage banner adimage banner ad
image banner ad

04PA - S&C Distribution Center

Located in Philadelphia, United States

ICAO - 04PA, IATA -

Data provided by Airmate  

General information

Coordinates: N39°52'45" W75°13'44"
Elevation is 50 feet MSL.
Magnetic variation is -11° East
View others Airports in Pennsylvania

Operational data

Special qualification required
Current time UTC:
Current local time:
Weather at : KPHL - Philadelphia Intl ( 1 km )
METAR: KPHL 091554Z 20010KT 10SM FEW030 BKN090 OVC130 13/05 A3010 RMK AO2 SLP192 T01330050
TAF: KPHL 091504Z 0915/1018 23006KT P6SM BKN120 FM092200 15006KT P6SM VCSH OVC025 FM100400 12005KT P6SM VCSH BKN025 WS020/21040KT FM100700 24005KT P6SM BKN035 WS020/23055KT FM101300 31010KT P6SM SCT030
View NOTAMs / SUP AIP / TFR affecting this airport [VIEW]
Communications frequencies: [VIEW]

Runways:

Airport contact information

Address: Philadelphia United States

Satellite view of 04PA